Clear Sky Current Weather (METAR) For Antalya Airport

All times on the weather descriptions are local

Observed at 07:20 - (13 mins ago)

Clear Sky

31°C

Clear Sky
Clouds:
Wind: 320° at 08 knots
Visibility: Greater than 10km
QNH: 1008
Dew Point: 12°C
Runway in Use: Runways 36L/C/R

Sunrise Today: 06:02
Sunset Today: 20:03

Forecast Weather (TAF) For Antalya Airport

Issued at 03:00 - (28 days ago)


Runway in Use: Unable to determine, wind is clam

Forecast valid until 03:00 on Monday

METAR/TAF RAW METAR / TAF

LTAI 030420Z 32008KT CAVOK 31/12 Q1008 NOSIG

Weather Widget

Put weather from any of our airports on your website with our weather widget.

Find Another Search

Airport Search


Please Wait Please Wait - Loading
Close
Close

Login

Username:

Password:

Remember Me:

Remember me on this computer

Forgotten your password? Get a reset password sent to your registered e-mail address

Close

User Private Message

Subject:

Message: